createdAt,value
2023-02-17T00:18:13.238Z,7.60
2023-02-17T00:23:51.869Z,7.60
2023-02-17T00:29:32.844Z,7.50
2023-02-17T00:40:32.671Z,7.40
2023-02-17T00:45:55.968Z,7.70
2023-02-17T00:51:31.840Z,7.60
2023-02-17T01:22:48.980Z,7.50
2023-02-17T01:29:11.888Z,7.60
2023-02-17T01:35:09.767Z,7.50
2023-02-17T01:52:22.979Z,7.60
2023-02-17T01:58:17.665Z,7.60
2023-02-17T02:04:05.475Z,7.70
2023-02-17T02:09:45.628Z,7.60
2023-02-17T02:21:14.030Z,7.50
2023-02-17T02:27:02.244Z,7.50
2023-02-17T02:33:05.585Z,7.40
2023-02-17T02:39:05.877Z,7.30
2023-02-17T02:44:35.945Z,7.20
2023-02-17T02:50:19.788Z,7.20
2023-02-17T03:01:51.276Z,7.00
2023-02-17T03:07:33.873Z,7.00
2023-02-17T03:13:29.267Z,6.90
2023-02-17T03:19:26.451Z,7.00
2023-02-17T03:24:42.266Z,7.20
2023-02-17T03:30:29.088Z,7.40
2023-02-17T03:36:16.968Z,7.80
2023-02-17T03:42:03.982Z,8.20
2023-02-17T03:48:02.717Z,8.90
2023-02-17T03:53:55.177Z,9.60
2023-02-17T04:18:46.080Z,9.90
2023-02-17T04:29:49.515Z,9.90
2023-02-17T04:34:52.171Z,9.60
2023-02-17T04:39:54.856Z,9.40
2023-02-17T04:44:58.894Z,9.30
2023-02-17T04:50:01.788Z,9.30
2023-02-17T04:55:05.358Z,9.30
2023-02-17T05:00:11.026Z,9.30
2023-02-17T05:05:15.253Z,9.40
2023-02-17T05:10:18.886Z,9.40
2023-02-17T05:15:22.930Z,9.30
2023-02-17T05:20:25.617Z,9.40
2023-02-17T05:25:28.515Z,9.40
2023-02-17T05:30:32.616Z,9.40
2023-02-17T05:35:35.767Z,9.20
2023-02-17T05:40:38.442Z,9.30
2023-02-17T05:45:42.418Z,9.20
2023-02-17T05:50:45.221Z,9.30
2023-02-17T05:55:48.857Z,9.30
2023-02-17T06:00:53.090Z,9.40
2023-02-17T06:05:55.726Z,9.40
2023-02-17T06:10:58.385Z,9.50
2023-02-17T06:16:02.699Z,9.50
2023-02-17T06:21:05.846Z,9.60
2023-02-17T06:26:08.810Z,9.60
2023-02-17T06:31:13.138Z,9.60
2023-02-17T06:36:16.926Z,9.80
2023-02-17T06:41:19.569Z,9.80
2023-02-17T06:46:23.540Z,10.00
2023-02-17T06:51:26.213Z,10.00
2023-02-17T06:56:28.905Z,10.00
2023-02-17T07:01:33.149Z,10.10
2023-02-17T07:06:36.077Z,10.10
2023-02-17T07:11:38.859Z,10.20
2023-02-17T07:16:42.891Z,10.30
2023-02-17T07:21:46.101Z,10.30
2023-02-17T07:26:49.737Z,10.40
2023-02-17T07:31:54.006Z,10.40
2023-02-17T07:36:56.729Z,10.50
2023-02-17T07:42:00.924Z,10.50
2023-02-17T07:47:05.062Z,10.60
2023-02-17T07:52:08.000Z,10.60
2023-02-17T07:57:10.702Z,10.60
2023-02-17T08:02:14.892Z,10.60
2023-02-17T08:07:17.698Z,10.70
2023-02-17T08:12:39.132Z,10.70
2023-02-17T08:17:44.334Z,10.80
2023-02-17T08:22:47.026Z,10.90
2023-02-17T08:27:50.061Z,11.00
2023-02-17T08:32:54.120Z,11.00
2023-02-17T08:37:56.914Z,10.90
2023-02-17T08:43:00.522Z,10.90
2023-02-17T08:48:06.831Z,10.90
2023-02-17T08:53:09.627Z,10.90
2023-02-17T08:58:12.316Z,10.90
2023-02-17T09:03:16.693Z,10.90
2023-02-17T09:08:19.411Z,11.10
2023-02-17T09:13:22.218Z,11.10
2023-02-17T09:18:26.359Z,11.30
2023-02-17T09:23:29.129Z,11.50
2023-02-17T09:28:32.182Z,11.60
2023-02-17T09:33:36.306Z,11.80
2023-02-17T09:38:40.451Z,12.10
2023-02-17T09:43:43.664Z,12.60
2023-02-17T09:48:50.311Z,12.80
2023-02-17T09:54:00.824Z,12.80
2023-02-17T09:59:09.550Z,12.80
2023-02-17T10:04:18.402Z,13.10
2023-02-17T10:09:28.018Z,12.90
2023-02-17T10:14:36.986Z,12.90
2023-02-17T10:19:48.748Z,12.80
2023-02-17T10:24:51.653Z,12.70
2023-02-17T10:36:31.915Z,12.60
2023-02-17T10:42:01.576Z,12.50
2023-02-17T10:47:21.305Z,12.90
2023-02-17T10:52:53.859Z,13.40
2023-02-17T11:04:50.865Z,13.70
2023-02-17T11:10:14.598Z,13.30
2023-02-17T11:15:45.343Z,13.20
2023-02-17T11:21:02.940Z,13.00
2023-02-17T11:26:27.023Z,12.80
2023-02-17T11:31:47.542Z,12.70
2023-02-17T11:54:56.521Z,12.10
2023-02-17T12:00:29.770Z,12.20
2023-02-17T12:05:54.329Z,12.30
2023-02-17T12:11:33.462Z,12.60
2023-02-17T12:16:58.285Z,12.90
2023-02-17T12:22:25.938Z,13.00
2023-02-17T12:34:16.379Z,13.10
2023-02-17T12:39:41.840Z,13.20
2023-02-17T12:45:09.550Z,13.50
2023-02-17T12:50:32.598Z,13.70
2023-02-17T12:55:58.377Z,13.80
2023-02-17T13:01:41.476Z,13.70
2023-02-17T13:07:22.726Z,13.60
2023-02-17T13:12:55.394Z,13.90
2023-02-17T13:18:15.346Z,14.10
2023-02-17T13:30:37.768Z,14.30
2023-02-17T13:35:55.475Z,14.50
2023-02-17T13:41:33.467Z,14.50
2023-02-17T13:59:47.631Z,14.40
2023-02-17T14:05:39.237Z,14.30
2023-02-17T14:11:31.426Z,14.30
2023-02-17T14:17:10.961Z,14.30
2023-02-17T14:28:39.874Z,14.20
2023-02-17T14:34:07.816Z,14.20
2023-02-17T14:39:31.684Z,14.20
2023-02-17T14:44:57.888Z,14.30
2023-02-17T14:50:14.324Z,14.20
2023-02-17T14:55:47.946Z,14.10
2023-02-17T15:07:13.377Z,14.40
2023-02-17T15:18:40.714Z,15.90
2023-02-17T15:30:18.263Z,15.10
2023-02-17T15:35:49.450Z,14.90
2023-02-17T15:47:13.935Z,14.30
2023-02-17T15:53:13.013Z,14.20
2023-02-17T16:04:44.153Z,13.80
2023-02-17T16:10:03.738Z,13.70
2023-02-17T16:15:15.621Z,13.60
2023-02-17T16:20:22.457Z,13.50
2023-02-17T16:25:31.215Z,13.40
2023-02-17T16:30:35.903Z,13.40
2023-02-17T16:35:43.429Z,13.30
2023-02-17T16:40:57.092Z,13.30
2023-02-17T16:46:06.848Z,13.30
2023-02-17T16:51:13.076Z,13.30
2023-02-17T16:56:26.848Z,13.40
2023-02-17T17:01:40.294Z,13.40
2023-02-17T17:06:58.581Z,13.30
2023-02-17T17:12:20.238Z,13.30
2023-02-17T17:17:45.206Z,13.30
2023-02-17T17:23:01.160Z,13.20
2023-02-17T17:28:21.074Z,13.40
2023-02-17T17:33:31.351Z,13.50
2023-02-17T17:39:15.755Z,13.70
2023-02-17T17:44:51.738Z,13.80
2023-02-17T17:56:25.303Z,13.90
2023-02-17T18:14:01.859Z,14.00
2023-02-17T18:37:40.713Z,13.10
2023-02-17T18:43:25.810Z,12.40
2023-02-17T18:48:34.517Z,12.10
2023-02-17T18:53:39.653Z,11.90
2023-02-17T18:58:45.284Z,11.70
2023-02-17T19:03:49.057Z,11.60
2023-02-17T19:08:53.681Z,11.60
2023-02-17T19:13:57.181Z,11.70
2023-02-17T19:19:00.699Z,11.60
2023-02-17T19:24:25.764Z,11.50
2023-02-17T19:29:29.199Z,11.60
2023-02-17T19:34:33.212Z,11.50
2023-02-17T19:39:43.024Z,11.50
2023-02-17T19:44:46.474Z,11.50
2023-02-17T19:49:53.984Z,11.60
2023-02-17T20:06:21.815Z,12.00
2023-02-17T20:11:46.643Z,12.20
2023-02-17T20:17:09.827Z,12.30
2023-02-17T22:47:45.139Z,10.30
2023-02-17T22:53:04.987Z,10.20
2023-02-17T22:58:29.605Z,9.90
2023-02-17T23:10:04.848Z,9.60
2023-02-17T23:15:45.812Z,9.60
2023-02-17T23:21:15.333Z,9.80
2023-02-17T23:27:02.301Z,9.80
2023-02-17T23:32:17.255Z,9.90
2023-02-17T23:37:43.898Z,9.90
2023-02-17T23:49:38.306Z,10.20
2023-02-17T23:55:03.397Z,10.00
